Time;durP1;ratioP1;P1;durP2;ratioP2;P2;SDS_P1;SDS_P2;PMS_P1;PMS_P2;Temp;Humidity;BMP_temperature;BMP_pressure;BME280_temperature;BME280_humidity;BME280_pressure;Samples;Min_cycle;Max_cycle;Signal;HPM_P1;HPM_P2
2024/02/26 00:00:08;;;;;;;;;;;;;;;;;;1904884;28;7008;-64
2024/02/26 00:01:06;;;;;;;;;;;;;;;;;;1903841;28;7091;-64
2024/02/26 00:02:03;;;;;;;;;;;;;;;;;;1903738;28;7096;-64
2024/02/26 00:03:01;;;;;;;;;;;;;;;;;;1907278;28;7179;-64
2024/02/26 00:03:59;;;;;;;;;;;;;;;;;;1912063;28;7124;-64
2024/02/26 00:04:57;;;;;;;;;;;;;;;;;;1918907;28;7933;-64
2024/02/26 00:05:55;;;;;;;;;;;;;;;;;;1912901;28;8037;-64
2024/02/26 00:06:54;;;;;;;;;;;;;;;;;;1908029;28;7008;-63
2024/02/26 00:07:52;;;;;;;;;;;;;;;;;;1911023;28;7005;-65
2024/02/26 00:08:49;;;;;;;;;;;;;;;;;;1911705;28;7023;-63
2024/02/26 00:09:47;;;;;;;;;;;;;;;;;;1911868;28;7127;-63
2024/02/26 00:10:44;;;;;;;;;;;;;;;;;;1911883;28;7116;-63
2024/02/26 00:11:41;;;;;;;;;;;;;;;;;;1912315;28;7048;-65
2024/02/26 00:12:39;;;;;;;;;;;;;;;;;;1911978;28;7020;-64
2024/02/26 00:13:36;;;;;;;;;;;;;;;;;;1907570;28;7360;-65
2024/02/26 00:14:34;;;;;;;;;;;;;;;;;;1903748;28;7042;-65
2024/02/26 00:15:31;;;;;;;;;;;;;;;;;;1903889;28;7095;-65
2024/02/26 00:16:29;;;;;;;;;;;;;;;;;;1904423;28;7013;-64
2024/02/26 00:17:26;;;;;;;;;;;;;;;;;;1903996;28;8043;-63
2024/02/26 00:18:24;;;;;;;;;;;;;;;;;;1903400;28;7009;-64
2024/02/26 00:19:21;;;;;;;;;;;;;;;;;;1903898;28;7008;-64
2024/02/26 00:20:19;;;;;;;;;;;;;;;;;;1903596;28;8094;-65
2024/02/26 00:21:16;;;;;;;;;;;;;;;;;;1904358;28;7091;-64
2024/02/26 00:22:14;;;;;;;;;;;;;;;;;;1902327;28;7144;-65
2024/02/26 00:23:11;;;;;;;;;;;;;;;;;;1903925;28;8009;-64
2024/02/26 00:24:09;;;;;;;;;;;;;;;;;;1904440;28;7032;-65
2024/02/26 00:25:06;;;;;;;;;;;;;;;;;;1903119;28;7009;-65
2024/02/26 00:26:03;;;;;;;;;;;;;;;;;;1903802;28;7128;-65
2024/02/26 00:27:01;;;;;;;;;;;;;;;;;;1909218;28;7006;-65
2024/02/26 00:27:58;;;;;;;;;;;;;;;;;;1902870;28;8118;-64
2024/02/26 00:28:56;;;;;;;;;;;;;;;;;;1903888;28;7012;-65
2024/02/26 00:29:53;;;;;;;;;;;;;;;;;;1903710;28;7009;-64
2024/02/26 00:30:55;;;;;;;;;;;;;;;;;;1904644;28;7028;-64
2024/02/26 00:31:53;;;;;;;;;;;;;;;;;;1904696;28;7200;-65
2024/02/26 00:32:50;;;;;;;;;;;;;;;;;;1904050;28;7013;-64
2024/02/26 00:33:48;;;;;;;;;;;;;;;;;;1903404;28;7148;-64
2024/02/26 00:34:45;;;;;;;;;;;;;;;;;;1907215;28;7129;-63
2024/02/26 00:35:43;;;;;;;;;;;;;;;;;;1911949;28;7020;-65
2024/02/26 00:36:40;;;;;;;;;;;;;;;;;;1911487;28;7353;-65
2024/02/26 00:37:38;;;;;;;;;;;;;;;;;;1911142;28;7128;-65
2024/02/26 00:38:35;;;;;;;;;;;;;;;;;;1910680;28;7008;-65
2024/02/26 00:39:33;;;;;;;;;;;;;;;;;;1910849;28;7009;-65
2024/02/26 00:40:30;;;;;;;;;;;;;;;;;;1911467;28;7005;-65
2024/02/26 00:41:28;;;;;;;;;;;;;;;;;;1911843;28;7143;-65
2024/02/26 00:42:25;;;;;;;;;;;;;;;;;;1911099;28;7230;-64
2024/02/26 00:43:23;;;;;;;;;;;;;;;;;;1911870;28;7091;-64
2024/02/26 00:44:20;;;;;;;;;;;;;;;;;;1904176;28;8050;-65
2024/02/26 00:45:18;;;;;;;;;;;;;;;;;;1911630;28;7038;-65
2024/02/26 00:46:15;;;;;;;;;;;;;;;;;;1905467;28;8082;-65
2024/02/26 00:47:13;;;;;;;;;;;;;;;;;;1905672;28;7092;-64
2024/02/26 00:48:10;;;;;;;;;;;;;;;;;;1903826;28;7311;-64
2024/02/26 00:49:08;;;;;;;;;;;;;;;;;;1905883;28;7041;-65
2024/02/26 00:50:05;;;;;;;;;;;;;;;;;;1911075;28;7012;-65
2024/02/26 00:51:05;;;;;;;;;;;;;;;;;;1911066;28;7009;-64
2024/02/26 00:52:03;;;;;;;;;;;;;;;;;;1911529;28;7061;-65
2024/02/26 00:53:02;;;;;;;;;;;;;;;;;;1911522;28;7041;-65
2024/02/26 00:53:59;;;;;;;;;;;;;;;;;;1903569;28;8026;-65
2024/02/26 00:54:57;;;;;;;;;;;;;;;;;;1903869;28;7324;-64
2024/02/26 00:55:54;;;;;;;;;;;;;;;;;;1905914;28;7005;-64
2024/02/26 00:56:52;;;;;;;;;;;;;;;;;;1911301;28;7020;-65
2024/02/26 00:57:49;;;;;;;;;;;;;;;;;;1911087;28;7095;-64
2024/02/26 00:58:46;;;;;;;;;;;;;;;;;;1911589;28;7108;-64
2024/02/26 00:59:44;;;;;;;;;;;;;;;;;;1903292;28;7008;-65
2024/02/26 01:00:42;;;;;;;;;;;;;;;;;;1903695;28;7016;-64
2024/02/26 01:01:39;;;;;;;;;;;;;;;;;;1911640;28;7124;-64
2024/02/26 01:02:38;;;;;;;;;;;;;;;;;;1910802;28;7016;-64
2024/02/26 01:03:35;;;;;;;;;;;;;;;;;;1910722;28;7096;-64
2024/02/26 01:04:34;;;;;;;;;;;;;;;;;;1904355;28;7048;-65
2024/02/26 01:05:31;;;;;;;;;;;;;;;;;;1902159;28;7095;-64
2024/02/26 01:06:28;;;;;;;;;;;;;;;;;;1906068;28;7013;-64
2024/02/26 01:07:26;;;;;;;;;;;;;;;;;;1911816;28;7042;-64
2024/02/26 01:08:24;;;;;;;;;;;;;;;;;;1911344;28;7012;-64
2024/02/26 01:09:21;;;;;;;;;;;;;;;;;;1908959;28;8024;-63
2024/02/26 01:10:19;;;;;;;;;;;;;;;;;;1904132;28;7128;-65
2024/02/26 01:11:16;;;;;;;;;;;;;;;;;;1902474;28;7020;-64
2024/02/26 01:12:13;;;;;;;;;;;;;;;;;;1908911;28;7012;-64
2024/02/26 01:13:11;;;;;;;;;;;;;;;;;;1912409;28;7012;-65
2024/02/26 01:14:08;;;;;;;;;;;;;;;;;;1908393;28;7090;-64
2024/02/26 01:15:06;;;;;;;;;;;;;;;;;;1903372;28;7111;-64
2024/02/26 01:16:04;;;;;;;;;;;;;;;;;;1903374;28;8104;-64
2024/02/26 01:17:02;;;;;;;;;;;;;;;;;;1907085;28;8034;-64
2024/02/26 01:18:00;;;;;;;;;;;;;;;;;;1904560;28;7211;-64
2024/02/26 01:18:58;;;;;;;;;;;;;;;;;;1910887;28;7090;-65
2024/02/26 01:19:55;;;;;;;;;;;;;;;;;;1911362;28;7092;-65
2024/02/26 01:20:54;;;;;;;;;;;;;;;;;;1910721;28;7139;-64
2024/02/26 01:21:51;;;;;;;;;;;;;;;;;;1908833;28;7091;-64
2024/02/26 01:22:49;;;;;;;;;;;;;;;;;;1902831;28;7088;-64
2024/02/26 01:23:46;;;;;;;;;;;;;;;;;;1903554;28;7041;-65
2024/02/26 01:24:44;;;;;;;;;;;;;;;;;;1911685;28;7008;-64
2024/02/26 01:25:43;;;;;;;;;;;;;;;;;;1908384;28;8068;-65
2024/02/26 01:26:40;;;;;;;;;;;;;;;;;;1903871;28;7328;-64
2024/02/26 01:27:38;;;;;;;;;;;;;;;;;;1903716;28;8026;-65
2024/02/26 01:28:35;;;;;;;;;;;;;;;;;;1903476;28;7098;-65
2024/02/26 01:29:33;;;;;;;;;;;;;;;;;;1905086;28;7106;-64
2024/02/26 01:30:30;;;;;;;;;;;;;;;;;;1910676;28;7016;-63
2024/02/26 01:31:28;;;;;;;;;;;;;;;;;;1905049;28;7315;-64
2024/02/26 01:32:25;;;;;;;;;;;;;;;;;;1906593;28;8063;-65
2024/02/26 01:33:23;;;;;;;;;;;;;;;;;;1911149;28;7008;-64
2024/02/26 01:34:20;;;;;;;;;;;;;;;;;;1911445;28;7216;-63
2024/02/26 01:35:19;;;;;;;;;;;;;;;;;;1911936;28;7126;-64
2024/02/26 01:36:16;;;;;;;;;;;;;;;;;;1911026;28;7115;-64
2024/02/26 01:37:14;;;;;;;;;;;;;;;;;;1917325;28;8350;-65
2024/02/26 01:38:11;;;;;;;;;;;;;;;;;;1917615;28;7013;-65
2024/02/26 01:39:11;;;;;;;;;;;;;;;;;;1912172;28;7012;-65
2024/02/26 01:40:09;;;;;;;;;;;;;;;;;;1911381;28;7269;-64
2024/02/26 01:41:06;;;;;;;;;;;;;;;;;;1911117;28;7148;-64
2024/02/26 01:42:04;;;;;;;;;;;;;;;;;;1909549;28;7060;-65
2024/02/26 01:43:01;;;;;;;;;;;;;;;;;;1903834;28;8002;-65
2024/02/26 01:43:59;;;;;;;;;;;;;;;;;;1904932;28;7020;-64
2024/02/26 01:44:56;;;;;;;;;;;;;;;;;;1911251;28;7033;-65
2024/02/26 01:45:55;;;;;;;;;;;;;;;;;;1912497;28;7083;-65
2024/02/26 01:46:53;;;;;;;;;;;;;;;;;;1903583;28;7009;-63
2024/02/26 01:47:51;;;;;;;;;;;;;;;;;;1910827;28;7049;-64
2024/02/26 01:48:49;;;;;;;;;;;;;;;;;;1906630;28;9029;-65
2024/02/26 01:49:47;;;;;;;;;;;;;;;;;;1905781;28;7013;-64
2024/02/26 01:50:45;;;;;;;;;;;;;;;;;;1903950;28;7084;-64
2024/02/26 01:51:44;;;;;;;;;;;;;;;;;;1906432;28;8028;-64
2024/02/26 01:52:41;;;;;;;;;;;;;;;;;;1905258;28;7016;-65
2024/02/26 01:53:39;;;;;;;;;;;;;;;;;;1905382;28;8026;-65
2024/02/26 01:54:37;;;;;;;;;;;;;;;;;;1907393;28;7044;-63
2024/02/26 01:55:35;;;;;;;;;;;;;;;;;;1912842;28;7132;-64
2024/02/26 01:56:34;;;;;;;;;;;;;;;;;;1911915;28;7940;-63
2024/02/26 01:57:32;;;;;;;;;;;;;;;;;;1904263;28;7249;-66
2024/02/26 01:58:30;;;;;;;;;;;;;;;;;;1907210;28;7040;-65
2024/02/26 01:59:28;;;;;;;;;;;;;;;;;;1911886;28;7179;-64
2024/02/26 02:00:25;;;;;;;;;;;;;;;;;;1912399;28;7091;-64
2024/02/26 02:01:29;;;;;;;;;;;;;;;;;;1912508;28;7136;-64
2024/02/26 02:02:27;;;;;;;;;;;;;;;;;;1912832;28;7013;-63
2024/02/26 02:03:24;;;;;;;;;;;;;;;;;;1912809;28;7112;-64
2024/02/26 02:04:23;;;;;;;;;;;;;;;;;;1908410;28;8036;-64
2024/02/26 02:05:21;;;;;;;;;;;;;;;;;;1904033;28;7987;-64
2024/02/26 02:06:20;;;;;;;;;;;;;;;;;;1904194;28;8012;-64
2024/02/26 02:07:18;;;;;;;;;;;;;;;;;;1905172;28;7021;-64
2024/02/26 02:08:16;;;;;;;;;;;;;;;;;;1905354;28;7009;-64
2024/02/26 02:09:13;;;;;;;;;;;;;;;;;;1904726;28;7109;-64
2024/02/26 02:10:11;;;;;;;;;;;;;;;;;;1904757;28;7090;-65
2024/02/26 02:11:11;;;;;;;;;;;;;;;;;;1907302;28;7013;-65
2024/02/26 02:12:09;;;;;;;;;;;;;;;;;;1912709;28;8528;-64
2024/02/26 02:13:07;;;;;;;;;;;;;;;;;;1911775;28;8015;-63
2024/02/26 02:14:04;;;;;;;;;;;;;;;;;;1909213;28;8115;-64
2024/02/26 02:15:02;;;;;;;;;;;;;;;;;;1904950;28;7120;-65
2024/02/26 02:15:59;;;;;;;;;;;;;;;;;;1905294;28;7009;-64
2024/02/26 02:16:57;;;;;;;;;;;;;;;;;;1904649;28;7013;-64
2024/02/26 02:17:54;;;;;;;;;;;;;;;;;;1905090;28;7042;-64
2024/02/26 02:18:52;;;;;;;;;;;;;;;;;;1905132;28;7037;-64
2024/02/26 02:19:50;;;;;;;;;;;;;;;;;;1904543;28;7077;-64
2024/02/26 02:20:47;;;;;;;;;;;;;;;;;;1905077;28;7123;-64
2024/02/26 02:21:44;;;;;;;;;;;;;;;;;;1905044;28;7089;-64
2024/02/26 02:22:42;;;;;;;;;;;;;;;;;;1910520;28;7004;-64
2024/02/26 02:23:40;;;;;;;;;;;;;;;;;;1912769;28;7025;-64
2024/02/26 02:24:37;;;;;;;;;;;;;;;;;;1912519;28;9089;-66
2024/02/26 02:25:35;;;;;;;;;;;;;;;;;;1912920;28;7012;-65
2024/02/26 02:26:32;;;;;;;;;;;;;;;;;;1912206;28;7011;-64
2024/02/26 02:27:30;;;;;;;;;;;;;;;;;;1912196;28;7184;-64
2024/02/26 02:28:27;;;;;;;;;;;;;;;;;;1912101;28;7148;-64
2024/02/26 02:29:27;;;;;;;;;;;;;;;;;;1912634;28;7336;-65
2024/02/26 02:30:27;;;;;;;;;;;;;;;;;;1911773;28;7004;-64
2024/02/26 02:31:25;;;;;;;;;;;;;;;;;;1912685;28;7139;-63
2024/02/26 02:32:25;;;;;;;;;;;;;;;;;;1912801;28;7012;-64
2024/02/26 02:33:23;;;;;;;;;;;;;;;;;;1912570;28;7113;-66
2024/02/26 02:34:21;;;;;;;;;;;;;;;;;;1912173;28;7108;-65
2024/02/26 02:35:19;;;;;;;;;;;;;;;;;;1904674;28;8042;-65
2024/02/26 02:36:16;;;;;;;;;;;;;;;;;;1906498;28;7046;-65
2024/02/26 02:37:14;;;;;;;;;;;;;;;;;;1912405;28;7180;-65
2024/02/26 02:38:11;;;;;;;;;;;;;;;;;;1908638;28;8444;-63
2024/02/26 02:39:08;;;;;;;;;;;;;;;;;;1916649;28;7017;-64
2024/02/26 02:40:06;;;;;;;;;;;;;;;;;;1912048;28;7032;-64
2024/02/26 02:41:05;;;;;;;;;;;;;;;;;;1905843;28;7053;-65
2024/02/26 02:42:02;;;;;;;;;;;;;;;;;;1909651;28;7013;-64
2024/02/26 02:43:01;;;;;;;;;;;;;;;;;;1910756;28;7049;-65
2024/02/26 02:43:59;;;;;;;;;;;;;;;;;;1906141;28;7120;-64
2024/02/26 02:44:56;;;;;;;;;;;;;;;;;;1910703;28;7192;-64
2024/02/26 02:45:54;;;;;;;;;;;;;;;;;;1912360;28;7053;-64
2024/02/26 02:46:53;;;;;;;;;;;;;;;;;;1911943;28;7040;-64
2024/02/26 02:47:50;;;;;;;;;;;;;;;;;;1907908;28;7199;-65
2024/02/26 02:48:48;;;;;;;;;;;;;;;;;;1904343;28;7024;-65
2024/02/26 02:49:45;;;;;;;;;;;;;;;;;;1905953;28;8017;-65
2024/02/26 02:50:43;;;;;;;;;;;;;;;;;;1904858;28;7016;-63
2024/02/26 02:51:40;;;;;;;;;;;;;;;;;;1906810;28;7037;-65
2024/02/26 02:52:38;;;;;;;;;;;;;;;;;;1912235;28;7067;-64
2024/02/26 02:53:35;;;;;;;;;;;;;;;;;;1912476;28;7124;-64
2024/02/26 02:54:32;;;;;;;;;;;;;;;;;;1912552;28;7310;-64
2024/02/26 02:55:30;;;;;;;;;;;;;;;;;;1910197;28;7032;-65
2024/02/26 02:56:27;;;;;;;;;;;;;;;;;;1912147;28;7185;-64
2024/02/26 02:57:24;;;;;;;;;;;;;;;;;;1907462;28;7050;-64
2024/02/26 02:58:22;;;;;;;;;;;;;;;;;;1909397;28;7012;-64
2024/02/26 02:59:19;;;;;;;;;;;;;;;;;;1912015;28;7013;-65
2024/02/26 03:00:17;;;;;;;;;;;;;;;;;;1912568;28;7004;-64
2024/02/26 03:01:14;;;;;;;;;;;;;;;;;;1906011;28;7138;-64
2024/02/26 03:02:12;;;;;;;;;;;;;;;;;;1908019;28;7161;-65
2024/02/26 03:03:09;;;;;;;;;;;;;;;;;;1911038;28;7105;-64
2024/02/26 03:04:07;;;;;;;;;;;;;;;;;;1911106;28;7107;-64
2024/02/26 03:05:04;;;;;;;;;;;;;;;;;;1909353;28;9354;-63
2024/02/26 03:06:02;;;;;;;;;;;;;;;;;;1904515;28;8024;-64
2024/02/26 03:07:00;;;;;;;;;;;;;;;;;;1905147;28;7017;-65
2024/02/26 03:07:58;;;;;;;;;;;;;;;;;;1904375;28;7013;-65
2024/02/26 03:08:55;;;;;;;;;;;;;;;;;;1903112;28;7083;-65
2024/02/26 03:09:53;;;;;;;;;;;;;;;;;;1906139;28;8046;-65
2024/02/26 03:10:50;;;;;;;;;;;;;;;;;;1911560;28;7025;-65
2024/02/26 03:11:48;;;;;;;;;;;;;;;;;;1912039;28;7016;-64
2024/02/26 03:12:45;;;;;;;;;;;;;;;;;;1909654;28;7334;-65
2024/02/26 03:13:43;;;;;;;;;;;;;;;;;;1905496;28;7387;-64
2024/02/26 03:14:40;;;;;;;;;;;;;;;;;;1903559;28;8050;-64
2024/02/26 03:15:38;;;;;;;;;;;;;;;;;;1904306;28;7107;-64
2024/02/26 03:16:35;;;;;;;;;;;;;;;;;;1904078;28;7046;-64
2024/02/26 03:17:33;;;;;;;;;;;;;;;;;;1904829;28;7370;-64
2024/02/26 03:18:30;;;;;;;;;;;;;;;;;;1911286;28;7052;-64
2024/02/26 03:19:28;;;;;;;;;;;;;;;;;;1912154;28;7016;-64
2024/02/26 03:20:25;;;;;;;;;;;;;;;;;;1911974;28;8083;-66
2024/02/26 03:21:22;;;;;;;;;;;;;;;;;;1911580;28;8021;-65
2024/02/26 03:22:20;;;;;;;;;;;;;;;;;;1907825;28;7107;-64
2024/02/26 03:23:18;;;;;;;;;;;;;;;;;;1904424;28;7013;-65
2024/02/26 03:24:15;;;;;;;;;;;;;;;;;;1910594;28;7038;-64
2024/02/26 03:25:12;;;;;;;;;;;;;;;;;;1911272;28;7107;-64
2024/02/26 03:26:13;;;;;;;;;;;;;;;;;;1904933;28;7232;-65
2024/02/26 03:27:11;;;;;;;;;;;;;;;;;;1905250;28;7100;-66
2024/02/26 03:28:08;;;;;;;;;;;;;;;;;;1905230;28;7124;-64
2024/02/26 03:29:05;;;;;;;;;;;;;;;;;;1906263;28;7012;-64
2024/02/26 03:30:03;;;;;;;;;;;;;;;;;;1908547;28;7021;-64
2024/02/26 03:31:02;;;;;;;;;;;;;;;;;;1904577;28;7083;-65
2024/02/26 03:31:59;;;;;;;;;;;;;;;;;;1904073;28;7017;-65
2024/02/26 03:32:57;;;;;;;;;;;;;;;;;;1904495;28;7112;-64
2024/02/26 03:33:54;;;;;;;;;;;;;;;;;;1905051;28;7108;-65
2024/02/26 03:34:54;;;;;;;;;;;;;;;;;;1908014;28;7176;-64
2024/02/26 03:35:52;;;;;;;;;;;;;;;;;;1906226;28;7129;-65
2024/02/26 03:36:49;;;;;;;;;;;;;;;;;;1904015;28;7091;-65
2024/02/26 03:37:47;;;;;;;;;;;;;;;;;;1903842;28;7009;-64
2024/02/26 03:38:45;;;;;;;;;;;;;;;;;;1904676;28;7041;-65
2024/02/26 03:39:42;;;;;;;;;;;;;;;;;;1903396;28;7422;-65
2024/02/26 03:40:39;;;;;;;;;;;;;;;;;;1904568;28;8050;-64
2024/02/26 03:41:37;;;;;;;;;;;;;;;;;;1906357;28;7057;-64
2024/02/26 03:42:34;;;;;;;;;;;;;;;;;;1904436;28;7012;-64
2024/02/26 03:43:32;;;;;;;;;;;;;;;;;;1906606;28;7207;-64
2024/02/26 03:44:29;;;;;;;;;;;;;;;;;;1909116;28;7337;-66
2024/02/26 03:45:27;;;;;;;;;;;;;;;;;;1904674;28;7125;-65
2024/02/26 03:46:25;;;;;;;;;;;;;;;;;;1904015;28;7107;-64
2024/02/26 03:47:22;;;;;;;;;;;;;;;;;;1904313;28;8170;-65
2024/02/26 03:48:20;;;;;;;;;;;;;;;;;;1904602;28;7335;-65
2024/02/26 03:49:18;;;;;;;;;;;;;;;;;;1904047;28;7034;-65
2024/02/26 03:50:16;;;;;;;;;;;;;;;;;;1903519;28;7321;-64
2024/02/26 03:51:13;;;;;;;;;;;;;;;;;;1903814;28;7115;-65
2024/02/26 03:52:11;;;;;;;;;;;;;;;;;;1904187;28;7296;-64
2024/02/26 03:53:12;;;;;;;;;;;;;;;;;;1904066;28;9165;-65
2024/02/26 03:54:11;;;;;;;;;;;;;;;;;;1902510;28;7096;-64
2024/02/26 03:55:09;;;;;;;;;;;;;;;;;;1910302;28;7942;-65
2024/02/26 03:56:07;;;;;;;;;;;;;;;;;;1911756;28;7020;-65
2024/02/26 03:57:04;;;;;;;;;;;;;;;;;;1911946;28;7088;-63
2024/02/26 03:58:03;;;;;;;;;;;;;;;;;;1911618;28;7088;-64
2024/02/26 03:59:02;;;;;;;;;;;;;;;;;;1911272;28;7009;-64
2024/02/26 03:59:59;;;;;;;;;;;;;;;;;;1911678;28;7041;-64
2024/02/26 04:00:57;;;;;;;;;;;;;;;;;;1906024;28;7108;-64
2024/02/26 04:01:54;;;;;;;;;;;;;;;;;;1903877;28;7042;-63
2024/02/26 04:02:52;;;;;;;;;;;;;;;;;;1904498;28;7008;-65
2024/02/26 04:03:50;;;;;;;;;;;;;;;;;;1902515;28;8030;-64
2024/02/26 04:04:47;;;;;;;;;;;;;;;;;;1903065;28;7346;-65
2024/02/26 04:05:45;;;;;;;;;;;;;;;;;;1903547;28;7072;-64
2024/02/26 04:06:46;;;;;;;;;;;;;;;;;;1903839;28;7104;-65
2024/02/26 04:07:44;;;;;;;;;;;;;;;;;;1904312;28;7152;-65
2024/02/26 04:08:41;;;;;;;;;;;;;;;;;;1904163;28;8132;-64
2024/02/26 04:09:39;;;;;;;;;;;;;;;;;;1909458;28;7120;-65
2024/02/26 04:10:38;;;;;;;;;;;;;;;;;;1910200;28;7021;-65
2024/02/26 04:11:36;;;;;;;;;;;;;;;;;;1911732;28;8057;-64
2024/02/26 04:12:33;;;;;;;;;;;;;;;;;;1902898;28;7127;-64
2024/02/26 04:13:31;;;;;;;;;;;;;;;;;;1907433;28;8022;-63
2024/02/26 04:14:29;;;;;;;;;;;;;;;;;;1906204;28;7008;-65
2024/02/26 04:15:26;;;;;;;;;;;;;;;;;;1903195;28;8015;-64
2024/02/26 04:16:24;;;;;;;;;;;;;;;;;;1903951;28;7009;-65
2024/02/26 04:17:21;;;;;;;;;;;;;;;;;;1904321;28;7012;-64
2024/02/26 04:18:19;;;;;;;;;;;;;;;;;;1902829;28;7148;-63
2024/02/26 04:19:16;;;;;;;;;;;;;;;;;;1903459;28;8015;-65
2024/02/26 04:20:18;;;;;;;;;;;;;;;;;;1903777;28;7041;-65
2024/02/26 04:21:15;;;;;;;;;;;;;;;;;;1903431;28;8050;-64
2024/02/26 04:22:13;;;;;;;;;;;;;;;;;;1903787;28;7128;-65
2024/02/26 04:23:10;;;;;;;;;;;;;;;;;;1903960;28;7021;-65
2024/02/26 04:24:07;;;;;;;;;;;;;;;;;;1909741;28;7123;-65
2024/02/26 04:25:05;;;;;;;;;;;;;;;;;;1911047;28;7091;-64
2024/02/26 04:26:03;;;;;;;;;;;;;;;;;;1911127;28;7414;-66
2024/02/26 04:27:01;;;;;;;;;;;;;;;;;;1911454;28;8025;-65
2024/02/26 04:27:58;;;;;;;;;;;;;;;;;;1907499;28;8082;-64
2024/02/26 04:28:56;;;;;;;;;;;;;;;;;;1911655;28;7096;-65
2024/02/26 04:29:53;;;;;;;;;;;;;;;;;;1911214;28;7112;-65
2024/02/26 04:30:50;;;;;;;;;;;;;;;;;;1909632;28;7009;-64
2024/02/26 04:31:48;;;;;;;;;;;;;;;;;;1903924;28;8019;-64
2024/02/26 04:32:45;;;;;;;;;;;;;;;;;;1904040;28;7045;-65
2024/02/26 04:33:43;;;;;;;;;;;;;;;;;;1903873;28;8221;-64
2024/02/26 04:34:42;;;;;;;;;;;;;;;;;;1902328;28;7104;-65
2024/02/26 04:35:39;;;;;;;;;;;;;;;;;;1903593;28;7013;-64
2024/02/26 04:36:36;;;;;;;;;;;;;;;;;;1908561;28;7011;-63
2024/02/26 04:37:34;;;;;;;;;;;;;;;;;;1911703;28;8034;-64
2024/02/26 04:38:31;;;;;;;;;;;;;;;;;;1906934;28;7031;-64
2024/02/26 04:39:28;;;;;;;;;;;;;;;;;;1910795;28;7008;-63
2024/02/26 04:40:26;;;;;;;;;;;;;;;;;;1904924;28;8076;-65
2024/02/26 04:41:23;;;;;;;;;;;;;;;;;;1903605;28;7045;-64
2024/02/26 04:42:21;;;;;;;;;;;;;;;;;;1903880;28;8054;-64
2024/02/26 04:43:19;;;;;;;;;;;;;;;;;;1905968;28;7048;-65
2024/02/26 04:44:16;;;;;;;;;;;;;;;;;;1904259;28;7053;-64
2024/02/26 04:45:14;;;;;;;;;;;;;;;;;;1902841;28;9014;-64
2024/02/26 04:46:12;;;;;;;;;;;;;;;;;;1903333;28;7016;-65
2024/02/26 04:47:09;;;;;;;;;;;;;;;;;;1903929;28;7038;-64
2024/02/26 04:48:06;;;;;;;;;;;;;;;;;;1908713;28;7053;-64
2024/02/26 04:49:04;;;;;;;;;;;;;;;;;;1910582;28;7103;-64
2024/02/26 04:50:02;;;;;;;;;;;;;;;;;;1905300;28;7087;-65
2024/02/26 04:50:59;;;;;;;;;;;;;;;;;;1907190;28;7013;-65
2024/02/26 04:51:57;;;;;;;;;;;;;;;;;;1903825;28;7160;-65
2024/02/26 04:52:54;;;;;;;;;;;;;;;;;;1903574;28;7021;-63
2024/02/26 04:53:53;;;;;;;;;;;;;;;;;;1903563;28;8147;-65
2024/02/26 04:54:51;;;;;;;;;;;;;;;;;;1903575;28;7021;-63
2024/02/26 04:55:48;;;;;;;;;;;;;;;;;;1903699;28;7013;-65
2024/02/26 04:56:46;;;;;;;;;;;;;;;;;;1903829;28;7371;-64
2024/02/26 04:57:43;;;;;;;;;;;;;;;;;;1904867;28;7042;-65
2024/02/26 04:58:41;;;;;;;;;;;;;;;;;;1904664;28;7045;-64
2024/02/26 04:59:38;;;;;;;;;;;;;;;;;;1909367;28;7005;-65
2024/02/26 05:00:35;;;;;;;;;;;;;;;;;;1910938;28;7100;-65
2024/02/26 05:01:33;;;;;;;;;;;;;;;;;;1907392;28;8203;-64
2024/02/26 05:02:33;;;;;;;;;;;;;;;;;;1902492;28;7017;-64
2024/02/26 05:03:30;;;;;;;;;;;;;;;;;;1903759;28;7231;-65
2024/02/26 05:04:31;;;;;;;;;;;;;;;;;;1904393;28;7306;-65
2024/02/26 05:05:29;;;;;;;;;;;;;;;;;;1904486;28;8032;-64
2024/02/26 05:06:26;;;;;;;;;;;;;;;;;;1905842;28;7149;-65
2024/02/26 05:07:24;;;;;;;;;;;;;;;;;;1904455;28;7138;-65
2024/02/26 05:08:21;;;;;;;;;;;;;;;;;;1904150;28;7025;-65
2024/02/26 05:09:19;;;;;;;;;;;;;;;;;;1903870;28;7053;-65
2024/02/26 05:10:16;;;;;;;;;;;;;;;;;;1903947;28;8055;-65
2024/02/26 05:11:13;;;;;;;;;;;;;;;;;;1903911;28;7017;-65
2024/02/26 05:12:11;;;;;;;;;;;;;;;;;;1904756;28;7157;-64
2024/02/26 05:13:08;;;;;;;;;;;;;;;;;;1903643;28;7017;-64
2024/02/26 05:14:06;;;;;;;;;;;;;;;;;;1904142;28;7092;-64
2024/02/26 05:15:03;;;;;;;;;;;;;;;;;;1904318;28;7554;-65
2024/02/26 05:16:01;;;;;;;;;;;;;;;;;;1905558;28;8019;-65
2024/02/26 05:17:01;;;;;;;;;;;;;;;;;;1905479;28;8036;-63
2024/02/26 05:17:59;;;;;;;;;;;;;;;;;;1905751;28;7109;-65
2024/02/26 05:18:57;;;;;;;;;;;;;;;;;;1909385;28;7029;-64
2024/02/26 05:19:54;;;;;;;;;;;;;;;;;;1913075;28;7125;-64
2024/02/26 05:20:52;;;;;;;;;;;;;;;;;;1908295;28;7028;-65
2024/02/26 05:21:50;;;;;;;;;;;;;;;;;;1905853;28;7009;-65
2024/02/26 05:22:48;;;;;;;;;;;;;;;;;;1905888;28;7017;-65
2024/02/26 05:23:45;;;;;;;;;;;;;;;;;;1905127;28;7099;-64
2024/02/26 05:24:42;;;;;;;;;;;;;;;;;;1905752;28;7052;-63
2024/02/26 05:25:41;;;;;;;;;;;;;;;;;;1913974;28;7010;-64
2024/02/26 05:26:38;;;;;;;;;;;;;;;;;;1913715;28;7015;-65
2024/02/26 05:27:36;;;;;;;;;;;;;;;;;;1912986;28;7107;-65
2024/02/26 05:28:33;;;;;;;;;;;;;;;;;;1913062;28;7103;-66
2024/02/26 05:29:30;;;;;;;;;;;;;;;;;;1913100;28;7020;-64
2024/02/26 05:30:28;;;;;;;;;;;;;;;;;;1913113;28;7091;-65
2024/02/26 05:31:27;;;;;;;;;;;;;;;;;;1905731;28;7047;-65
2024/02/26 05:32:24;;;;;;;;;;;;;;;;;;1905914;28;7012;-64
2024/02/26 05:33:23;;;;;;;;;;;;;;;;;;1905637;28;7291;-65
2024/02/26 05:34:21;;;;;;;;;;;;;;;;;;1905010;28;7025;-64
2024/02/26 05:35:19;;;;;;;;;;;;;;;;;;1905372;28;7033;-64
2024/02/26 05:36:22;;;;;;;;;;;;;;;;;;1905697;28;8117;-64
2024/02/26 05:37:19;;;;;;;;;;;;;;;;;;1910543;28;7008;-63
2024/02/26 05:38:17;;;;;;;;;;;;;;;;;;1905395;28;7149;-66
2024/02/26 05:39:14;;;;;;;;;;;;;;;;;;1904137;28;7009;-66
2024/02/26 05:40:17;;;;;;;;;;;;;;;;;;1906349;28;7039;-66
2024/02/26 05:41:15;;;;;;;;;;;;;;;;;;1906356;28;7100;-66
2024/02/26 05:42:12;;;;;;;;;;;;;;;;;;1905901;28;7112;-64
2024/02/26 05:43:10;;;;;;;;;;;;;;;;;;1913213;28;8989;-65
2024/02/26 05:44:10;;;;;;;;;;;;;;;;;;1913565;28;7395;-64
2024/02/26 05:45:07;;;;;;;;;;;;;;;;;;1912962;28;7126;-65
2024/02/26 05:46:05;;;;;;;;;;;;;;;;;;1913403;28;7008;-65
2024/02/26 05:47:02;;;;;;;;;;;;;;;;;;1912833;28;7136;-64
2024/02/26 05:48:03;;;;;;;;;;;;;;;;;;1909711;28;7108;-65
2024/02/26 05:49:01;;;;;;;;;;;;;;;;;;1906166;28;7564;-65
2024/02/26 05:50:00;;;;;;;;;;;;;;;;;;1908789;28;7191;-65
2024/02/26 05:50:58;;;;;;;;;;;;;;;;;;1911995;28;8464;-65
2024/02/26 05:51:55;;;;;;;;;;;;;;;;;;1911730;28;7541;-64
2024/02/26 05:52:52;;;;;;;;;;;;;;;;;;1912511;28;7420;-65
2024/02/26 05:53:53;;;;;;;;;;;;;;;;;;1912527;28;7116;-65
2024/02/26 05:54:52;;;;;;;;;;;;;;;;;;1910459;28;7001;-64
2024/02/26 05:55:49;;;;;;;;;;;;;;;;;;1913462;28;7091;-65
2024/02/26 05:56:46;;;;;;;;;;;;;;;;;;1913683;28;7017;-65
2024/02/26 05:57:44;;;;;;;;;;;;;;;;;;1907866;28;7040;-66
2024/02/26 05:58:41;;;;;;;;;;;;;;;;;;1913007;28;7009;-64
2024/02/26 05:59:39;;;;;;;;;;;;;;;;;;1913320;28;7331;-64
2024/02/26 06:00:36;;;;;;;;;;;;;;;;;;1913503;28;7092;-65
2024/02/26 06:01:34;;;;;;;;;;;;;;;;;;1912574;28;7212;-64
2024/02/26 06:02:31;;;;;;;;;;;;;;;;;;1912907;28;8104;-64
2024/02/26 06:03:29;;;;;;;;;;;;;;;;;;1913546;28;7016;-65
2024/02/26 06:04:27;;;;;;;;;;;;;;;;;;1915186;28;7040;-65
2024/02/26 06:05:24;;;;;;;;;;;;;;;;;;1911840;28;7092;-66
2024/02/26 06:06:23;;;;;;;;;;;;;;;;;;1905755;28;7025;-64
2024/02/26 06:07:21;;;;;;;;;;;;;;;;;;1912807;28;7119;-65
2024/02/26 06:08:18;;;;;;;;;;;;;;;;;;1913273;28;7005;-65
2024/02/26 06:09:16;;;;;;;;;;;;;;;;;;1912913;28;7130;-64
2024/02/26 06:10:16;;;;;;;;;;;;;;;;;;1913350;28;7029;-64
2024/02/26 06:11:13;;;;;;;;;;;;;;;;;;1912372;28;7032;-63
2024/02/26 06:12:11;;;;;;;;;;;;;;;;;;1905526;28;7116;-65
2024/02/26 06:13:08;;;;;;;;;;;;;;;;;;1903929;28;8686;-64
2024/02/26 06:14:05;;;;;;;;;;;;;;;;;;1904571;28;7187;-64
2024/02/26 06:15:04;;;;;;;;;;;;;;;;;;1905143;28;7009;-65
2024/02/26 06:16:02;;;;;;;;;;;;;;;;;;1905281;28;7044;-65
2024/02/26 06:16:59;;;;;;;;;;;;;;;;;;1906202;28;7308;-64
2024/02/26 06:17:57;;;;;;;;;;;;;;;;;;1909103;28;7128;-65
2024/02/26 06:18:54;;;;;;;;;;;;;;;;;;1912202;28;7017;-63
2024/02/26 06:19:52;;;;;;;;;;;;;;;;;;1906802;28;7016;-65
2024/02/26 06:20:49;;;;;;;;;;;;;;;;;;1905170;28;7991;-65
2024/02/26 06:21:47;;;;;;;;;;;;;;;;;;1907137;28;7172;-65
2024/02/26 06:22:44;;;;;;;;;;;;;;;;;;1912898;28;7095;-63
2024/02/26 06:23:42;;;;;;;;;;;;;;;;;;1913230;28;7025;-66
2024/02/26 06:24:39;;;;;;;;;;;;;;;;;;1910185;28;8036;-65
2024/02/26 06:25:37;;;;;;;;;;;;;;;;;;1905652;28;7137;-65
2024/02/26 06:26:34;;;;;;;;;;;;;;;;;;1905691;28;7009;-64
2024/02/26 06:27:31;;;;;;;;;;;;;;;;;;1904234;28;7098;-65
2024/02/26 06:28:32;;;;;;;;;;;;;;;;;;1911765;28;7021;-64
2024/02/26 06:29:29;;;;;;;;;;;;;;;;;;1910973;28;7035;-65
2024/02/26 06:30:27;;;;;;;;;;;;;;;;;;1906014;28;7100;-64
2024/02/26 06:31:27;;;;;;;;;;;;;;;;;;1905487;28;7128;-64
2024/02/26 06:32:27;;;;;;;;;;;;;;;;;;1904658;28;7111;-65
2024/02/26 06:33:25;;;;;;;;;;;;;;;;;;1905650;28;7267;-65
2024/02/26 06:34:22;;;;;;;;;;;;;;;;;;1904824;28;7327;-65
2024/02/26 06:35:20;;;;;;;;;;;;;;;;;;1904662;28;7109;-64
2024/02/26 06:36:17;;;;;;;;;;;;;;;;;;1903822;28;7022;-65
2024/02/26 06:37:15;;;;;;;;;;;;;;;;;;1905025;28;8058;-65
2024/02/26 06:38:13;;;;;;;;;;;;;;;;;;1905607;28;7093;-65
2024/02/26 06:39:12;;;;;;;;;;;;;;;;;;1905457;28;7013;-66
2024/02/26 06:40:10;;;;;;;;;;;;;;;;;;1910759;28;7128;-64
2024/02/26 06:41:07;;;;;;;;;;;;;;;;;;1905040;28;7191;-64